Time;durP1;ratioP1;P1;durP2;ratioP2;P2;SDS_P1;SDS_P2;PMS_P1;PMS_P2;Temp;Humidity;BMP_temperature;BMP_pressure;BME280_temperature;BME280_humidity;BME280_pressure;Samples;Min_cycle;Max_cycle;Signal;HPM_P1;HPM_P2
2021/08/09 00:00:27;;;;;;;14.33;6.08;;;;;;;21.60;61.77;100433.59;1645298;87;21533;-61
2021/08/09 00:03:00;;;;;;;21.57;6.37;;;;;;;21.55;61.85;100424.88;1645596;87;21287;-61
2021/08/09 00:05:35;;;;;;;20.37;6.25;;;;;;;21.52;61.90;100432.47;1644937;87;21316;-61
2021/08/09 00:08:08;;;;;;;14.63;5.20;;;;;;;21.49;61.96;100432.36;1645101;86;21321;-61
2021/08/09 00:10:42;;;;;;;15.85;5.55;;;;;;;21.46;61.94;100434.92;1643798;87;21184;-60
2021/08/09 00:13:16;;;;;;;17.25;5.15;;;;;;;21.44;61.96;100435.64;1644076;87;21168;-61
2021/08/09 00:15:50;;;;;;;11.73;5.70;;;;;;;21.42;61.97;100437.66;1645719;87;21185;-61
2021/08/09 00:18:25;;;;;;;20.32;5.80;;;;;;;21.39;61.92;100431.92;1644146;87;21224;-61
2021/08/09 00:20:59;;;;;;;14.07;5.80;;;;;;;21.36;61.94;100426.99;1643828;87;21208;-61
2021/08/09 00:23:33;;;;;;;13.45;5.60;;;;;;;21.32;62.01;100421.77;1644025;86;21172;-62
2021/08/09 00:26:07;;;;;;;19.50;6.08;;;;;;;21.29;62.08;100423.50;1643833;86;21232;-62
2021/08/09 00:28:41;;;;;;;19.82;5.42;;;;;;;21.27;62.09;100422.88;1644123;86;21196;-62
2021/08/09 00:31:15;;;;;;;9.53;5.25;;;;;;;21.25;62.04;100427.59;1645208;87;21319;-62
2021/08/09 00:33:49;;;;;;;12.00;4.80;;;;;;;21.23;61.98;100432.30;1644388;87;21208;-63
2021/08/09 00:36:22;;;;;;;17.20;5.00;;;;;;;21.22;61.97;100430.64;1645292;87;21310;-62
2021/08/09 00:38:57;;;;;;;14.50;5.47;;;;;;;21.19;61.96;100429.20;1645092;86;21169;-62
2021/08/09 00:41:29;;;;;;;;;;;;;;;21.18;61.88;100428.09;1641428;87;21308;-62
2021/08/09 00:44:03;;;;;;;12.20;5.10;;;;;;;21.15;61.78;100421.31;1651406;87;20245;-63
2021/08/09 00:46:37;;;;;;;13.20;5.25;;;;;;;21.11;61.84;100420.59;1650741;87;21845;-62
2021/08/09 00:49:11;;;;;;;10.48;4.83;;;;;;;21.07;61.92;100416.16;1628115;88;21263;-62
2021/08/09 00:51:44;;;;;;;9.98;5.10;;;;;;;21.03;61.96;100417.56;1627616;88;21212;-62
2021/08/09 00:54:18;;;;;;;13.68;5.08;;;;;;;20.99;62.06;100415.00;1623559;88;21318;-62
2021/08/09 00:56:51;;;;;;;12.33;5.00;;;;;;;20.96;62.13;100413.22;1628041;88;21334;-63
2021/08/09 00:59:25;;;;;;;13.83;4.62;;;;;;;20.94;62.17;100414.77;1623285;88;21179;-62
2021/08/09 01:01:58;;;;;;;11.60;4.78;;;;;;;20.91;62.20;100409.00;1629656;88;21326;-62
2021/08/09 01:04:31;;;;;;;11.20;5.03;;;;;;;20.88;62.17;100412.88;1624541;88;21283;-62
2021/08/09 01:10:36;;;;;;;11.30;5.25;;;;;;;20.77;61.99;100412.95;1619640;88;21335;-63
2021/08/09 01:13:24;;;;;;;10.80;4.72;;;;;;;20.71;62.02;100418.22;1628436;88;21226;-63
2021/08/09 01:16:02;;;;;;;13.90;3.98;;;;;;;20.67;62.07;100418.31;1622129;88;21279;-63
2021/08/09 01:18:37;;;;;;;9.25;4.75;;;;;;;20.64;62.11;100422.19;1607857;88;21179;-62
2021/08/09 01:21:11;;;;;;;13.38;5.17;;;;;;;20.62;62.10;100421.57;1623356;88;21375;-63
2021/08/09 01:24:25;;;;;;;11.38;4.33;;;;;;;20.60;62.21;100417.47;1620795;88;21204;-62
2021/08/09 01:27:32;;;;;;;12.28;4.42;;;;;;;20.57;62.32;100408.03;1643383;86;21277;-62
2021/08/09 01:30:08;;;;;;;13.68;4.72;;;;;;;20.54;62.34;100414.28;1649858;87;21321;-61
2021/08/09 01:32:44;;;;;;;9.80;4.50;;;;;;;20.50;62.27;100416.48;1650796;87;21239;-62
2021/08/09 01:35:19;;;;;;;10.60;4.83;;;;;;;20.48;62.19;100421.19;1627994;88;21227;-61
2021/08/09 01:37:55;;;;;;;11.15;4.78;;;;;;;20.43;62.12;100418.30;1627248;88;21227;-62
2021/08/09 01:40:30;;;;;;;10.48;4.25;;;;;;;20.40;62.09;100420.00;1622304;88;21822;-63
2021/08/09 01:43:03;;;;;;;;;;;;;;;20.37;62.11;100416.40;1645263;87;21318;-62
2021/08/09 01:45:37;;;;;;;9.08;4.53;;;;;;;20.35;62.16;100421.62;1633798;88;20239;-62
2021/08/09 01:48:10;;;;;;;11.28;4.85;;;;;;;20.31;62.25;100419.02;1651777;86;21397;-62
2021/08/09 01:50:46;;;;;;;10.72;4.10;;;;;;;20.29;62.30;100416.57;1651675;86;21727;-61
2021/08/09 01:53:20;;;;;;;11.68;4.12;;;;;;;20.29;62.35;100417.91;1652428;87;21215;-62
2021/08/09 01:55:54;;;;;;;10.20;3.95;;;;;;;20.25;62.29;100412.67;1652408;87;21184;-62
2021/08/09 01:58:29;;;;;;;11.05;4.37;;;;;;;20.24;62.22;100413.67;1651783;87;21216;-62
2021/08/09 02:01:02;;;;;;;;;;;;;;;20.21;62.28;100416.67;1654768;87;21315;-62
2021/08/09 02:03:36;;;;;;;7.85;4.03;;;;;;;20.20;62.30;100413.72;1651501;87;20236;-62
2021/08/09 02:06:09;;;;;;;10.60;4.55;;;;;;;20.15;62.34;100415.64;1652355;87;21213;-62
2021/08/09 02:08:43;;;;;;;9.63;4.22;;;;;;;20.14;62.21;100413.98;1651630;87;21203;-62
2021/08/09 02:11:41;;;;;;;10.75;4.25;;;;;;;20.12;62.18;100407.22;1652883;87;21164;-62
2021/08/09 02:14:17;;;;;;;12.63;4.58;;;;;;;20.13;62.14;100410.20;1650909;87;21294;-62
2021/08/09 02:17:13;;;;;;;9.40;4.08;;;;;;;20.13;62.09;100412.33;1653791;87;21323;-64
2021/08/09 02:19:57;;;;;;;10.85;4.10;;;;;;;20.14;62.12;100423.79;1652509;87;21284;-61
2021/08/09 02:22:49;;;;;;;7.90;3.97;;;;;;;20.15;62.17;100429.43;1652740;87;21212;-61
2021/08/09 02:25:27;;;;;;;5.75;3.52;;;;;;;20.16;61.92;100424.41;1652863;87;21907;-61
2021/08/09 02:28:13;;;;;;;10.43;4.00;;;;;;;20.18;62.01;100431.67;1652032;87;21192;-61
2021/08/09 02:30:50;;;;;;;15.58;4.50;;;;;;;20.20;61.83;100426.19;1652161;87;21291;-61
2021/08/09 02:33:23;;;;;;;11.33;3.60;;;;;;;20.23;61.63;100425.84;1652039;87;21318;-62
2021/08/09 02:35:56;;;;;;;10.80;3.92;;;;;;;20.26;61.48;100427.59;1652320;87;21189;-61
2021/08/09 02:38:30;;;;;;;7.05;4.20;;;;;;;20.29;61.29;100423.22;1652358;87;21318;-61
2021/08/09 02:41:03;;;;;;;8.53;3.52;;;;;;;20.35;61.10;100416.31;1653737;87;21334;-61
2021/08/09 02:43:36;;;;;;;7.97;3.52;;;;;;;20.41;60.85;100412.36;1650829;87;21196;-61
2021/08/09 02:46:10;;;;;;;10.78;3.85;;;;;;;20.47;60.61;100414.22;1625557;87;21370;-62
2021/08/09 02:48:43;;;;;;;7.90;3.85;;;;;;;20.54;60.29;100411.62;1648015;87;21347;-61
2021/08/09 02:51:21;;;;;;;10.32;4.20;;;;;;;20.59;60.04;100412.65;1648221;87;21279;-61
2021/08/09 02:53:54;;;;;;;9.50;3.90;;;;;;;20.67;59.77;100418.31;1647553;87;21771;-62
2021/08/09 02:56:28;;;;;;;9.13;3.77;;;;;;;20.75;59.58;100416.83;1648393;87;21176;-61
2021/08/09 02:59:03;;;;;;;10.43;3.40;;;;;;;20.81;59.33;100413.37;1647828;87;21311;-62
2021/08/09 03:01:36;;;;;;;8.43;3.65;;;;;;;20.90;59.05;100416.70;1648438;87;21283;-62
2021/08/09 03:04:13;;;;;;;12.37;3.42;;;;;;;21.00;58.66;100413.95;1649393;87;21239;-61
2021/08/09 03:06:46;;;;;;;7.95;3.50;;;;;;;21.09;58.35;100417.31;1648315;87;21283;-61
2021/08/09 03:09:19;;;;;;;14.85;3.65;;;;;;;21.19;58.13;100419.06;1647912;87;21310;-63
2021/08/09 03:11:52;;;;;;;11.12;3.67;;;;;;;21.28;58.01;100423.20;1648441;87;21249;-62
2021/08/09 03:14:26;;;;;;;;;;;;;;;21.39;57.78;100426.09;1649988;87;21208;-63
2021/08/09 03:17:05;;;;;;;11.15;3.40;;;;;;;21.51;57.56;100424.98;1647561;85;20185;-62
2021/08/09 03:19:38;;;;;;;12.10;3.40;;;;;;;21.61;57.19;100418.75;1647535;87;21367;-62
2021/08/09 03:22:11;;;;;;;11.00;3.70;;;;;;;21.75;56.72;100420.41;1648411;87;21333;-62
2021/08/09 03:24:44;;;;;;;9.55;3.58;;;;;;;21.87;56.33;100424.13;1646345;87;21342;-63
2021/08/09 03:27:18;;;;;;;8.15;3.35;;;;;;;21.99;55.89;100425.66;1633318;88;21239;-62
2021/08/09 03:29:51;;;;;;;7.17;3.27;;;;;;;22.12;55.50;100424.31;1633805;88;21382;-63
2021/08/09 03:32:25;;;;;;;10.95;3.42;;;;;;;22.24;55.25;100430.66;1632942;87;21216;-64
2021/08/09 03:34:59;;;;;;;11.38;3.92;;;;;;;22.39;54.86;100429.92;1687163;85;21223;-62
2021/08/09 03:37:32;;;;;;;10.18;3.10;;;;;;;22.54;54.68;100429.18;1686026;84;21264;-65
2021/08/09 03:40:09;;;;;;;8.58;3.33;;;;;;;22.70;54.48;100428.75;1682193;85;21164;-62
2021/08/09 03:42:42;;;;;;;11.53;3.30;;;;;;;22.89;54.18;100437.70;1682115;85;21266;-65
2021/08/09 03:45:15;;;;;;;5.83;3.35;;;;;;;23.09;53.87;100430.45;1628421;86;21292;-63
2021/08/09 03:47:48;;;;;;;10.23;3.40;;;;;;;23.30;53.43;100427.45;1636018;87;21234;-64
2021/08/09 03:50:21;;;;;;;5.83;3.02;;;;;;;23.64;52.73;100426.24;1630451;87;21219;-62
2021/08/09 03:52:55;;;;;;;11.00;3.95;;;;;;;24.18;51.44;100432.80;1633482;87;21175;-64
2021/08/09 03:55:29;;;;;;;6.17;3.55;;;;;;;24.75;49.75;100432.41;1679752;85;21303;-65
2021/08/09 03:58:02;;;;;;;10.78;3.87;;;;;;;25.34;48.07;100431.67;1642958;86;21282;-63
2021/08/09 04:00:37;;;;;;;13.60;4.00;;;;;;;25.91;46.57;100439.63;1635049;87;21227;-64
2021/08/09 04:03:11;;;;;;;6.62;3.75;;;;;;;26.49;45.15;100436.95;1635508;85;21323;-64
2021/08/09 04:05:44;;;;;;;9.63;3.12;;;;;;;27.03;44.02;100431.16;1635540;88;21331;-64
2021/08/09 04:08:18;;;;;;;14.28;3.30;;;;;;;27.55;43.05;100431.89;1634263;88;21326;-66
2021/08/09 04:10:52;;;;;;;11.22;3.20;;;;;;;28.05;41.87;100425.20;1632819;88;21251;-65
2021/08/09 04:13:25;;;;;;;11.18;2.95;;;;;;;28.57;40.79;100421.62;1632614;88;21219;-66
2021/08/09 04:15:58;;;;;;;9.43;2.87;;;;;;;29.10;39.74;100426.35;1632646;88;21275;-65
2021/08/09 04:18:33;;;;;;;8.58;3.25;;;;;;;29.55;38.69;100424.67;1634698;87;21184;-67
2021/08/09 04:21:07;;;;;;;9.13;3.22;;;;;;;30.02;37.85;100424.84;1636083;88;21435;-66
2021/08/09 04:23:40;;;;;;;6.35;3.08;;;;;;;30.49;37.10;100417.59;1635174;88;21240;-66
2021/08/09 04:26:15;;;;;;;9.78;2.80;;;;;;;30.92;36.30;100421.86;1635049;87;21438;-66
2021/08/09 04:28:48;;;;;;;11.80;3.10;;;;;;;31.39;35.35;100418.45;1635050;85;21192;-69
2021/08/09 04:31:22;;;;;;;5.33;2.75;;;;;;;31.83;34.52;100418.78;1636135;88;21205;-67
2021/08/09 04:33:55;;;;;;;6.53;2.90;;;;;;;32.27;33.92;100419.82;1644478;86;21181;-68
2021/08/09 04:36:29;;;;;;;7.47;3.10;;;;;;;32.71;33.05;100432.19;1621504;88;21431;-67
2021/08/09 04:39:03;;;;;;;7.17;2.70;;;;;;;33.14;32.34;100430.11;1676201;85;21260;-67
2021/08/09 04:41:37;;;;;;;10.43;2.80;;;;;;;33.56;31.68;100416.00;1682197;85;21193;-66
2021/08/09 04:44:13;;;;;;;9.40;3.40;;;;;;;33.96;31.29;100420.30;1651812;85;21330;-67
2021/08/09 04:46:46;;;;;;;9.50;3.25;;;;;;;34.37;30.55;100419.34;1683698;85;21341;-67
2021/08/09 04:49:20;;;;;;;10.63;3.35;;;;;;;34.77;29.99;100418.09;1684490;85;21318;-67
2021/08/09 04:51:54;;;;;;;7.05;3.50;;;;;;;35.20;28.96;100425.15;1683557;84;21219;-70
2021/08/09 04:58:49;;;;;;;9.18;2.83;;;;;;;36.03;27.33;100423.02;1682570;85;21135;-70
2021/08/09 05:01:25;;;;;;;7.72;3.10;;;;;;;36.53;26.64;100426.18;1680775;85;21235;-71
2021/08/09 05:03:58;;;;;;;6.65;2.50;;;;;;;36.90;26.08;100425.93;1686278;85;21235;-67
2021/08/09 05:10:42;;;;;;;8.68;3.08;;;;;;;37.69;24.80;100425.77;1681477;85;21171;-66
2021/08/09 05:17:25;;;;;;;9.73;3.00;;;;;;;38.61;23.36;100430.45;1682794;85;21362;-68
2021/08/09 05:19:59;;;;;;;9.95;2.90;;;;;;;38.92;22.72;100427.09;1684380;85;21207;-67
2021/08/09 05:22:34;;;;;;;7.03;2.90;;;;;;;39.19;22.47;100423.84;1680130;85;22028;-66
2021/08/09 05:25:10;;;;;;;6.80;2.87;;;;;;;39.43;22.21;100426.91;1676853;85;21302;-68
2021/08/09 05:27:44;;;;;;;14.25;4.05;;;;;;;39.73;21.68;100426.48;1679180;85;21372;-67
2021/08/09 05:30:17;;;;;;;14.58;3.27;;;;;;;39.99;21.19;100423.10;1680528;85;21234;-69
2021/08/09 05:32:51;;;;;;;9.83;4.00;;;;;;;40.16;20.85;100418.41;1680122;85;21329;-66
2021/08/09 05:35:24;;;;;;;7.90;4.03;;;;;;;40.38;20.24;100422.02;1681038;85;21317;-68
2021/08/09 05:37:58;;;;;;;5.50;2.87;;;;;;;40.66;19.81;100420.44;1679828;85;21262;-64
2021/08/09 05:40:32;;;;;;;10.80;3.25;;;;;;;40.89;19.21;100417.67;1681213;85;21358;-69
2021/08/09 05:43:05;;;;;;;8.28;3.20;;;;;;;40.98;19.14;100412.92;1680068;85;22203;-69
2021/08/09 05:45:38;;;;;;;5.87;2.65;;;;;;;41.14;19.15;100408.98;1681171;85;21257;-65
2021/08/09 05:48:11;;;;;;;8.90;3.10;;;;;;;41.34;18.65;100410.39;1679858;85;21322;-67
2021/08/09 05:50:45;;;;;;;5.35;2.72;;;;;;;41.51;18.76;100401.17;1681034;85;22105;-66
2021/08/09 05:53:19;;;;;;;13.10;2.80;;;;;;;41.76;18.67;100408.94;1682393;85;21385;-68
2021/08/09 05:55:54;;;;;;;5.97;2.65;;;;;;;41.95;18.63;100404.52;1681277;85;21314;-69
2021/08/09 05:58:28;;;;;;;8.10;3.12;;;;;;;42.04;18.33;100407.95;1679798;85;21187;-68
2021/08/09 06:01:02;;;;;;;8.95;2.90;;;;;;;42.32;18.02;100408.14;1680902;85;21309;-67
2021/08/09 06:03:37;;;;;;;9.08;2.90;;;;;;;42.53;17.64;100408.84;1679779;85;21622;-68
2021/08/09 06:06:19;;;;;;;8.58;3.00;;;;;;;42.82;16.82;100411.90;1681103;85;21349;-68
2021/08/09 06:08:54;;;;;;;9.78;2.85;;;;;;;43.13;16.34;100412.08;1682032;85;21262;-72
2021/08/09 06:11:28;;;;;;;8.98;2.92;;;;;;;43.34;15.95;100411.91;1681207;85;21333;-69
2021/08/09 06:14:01;;;;;;;5.12;2.58;;;;;;;43.63;16.10;100404.64;1679864;85;21278;-68
2021/08/09 06:16:34;;;;;;;8.83;2.75;;;;;;;44.02;15.88;100399.58;1683902;85;21195;-67
2021/08/09 06:19:09;;;;;;;4.60;2.55;;;;;;;44.37;15.58;100406.59;1682313;85;21325;-67
2021/08/09 06:21:43;;;;;;;6.55;2.55;;;;;;;44.60;15.26;100408.92;1681231;85;21184;-67
2021/08/09 06:24:17;;;;;;;6.80;2.67;;;;;;;44.71;15.21;100401.67;1677637;85;21367;-67
2021/08/09 06:26:52;;;;;;;6.45;2.90;;;;;;;44.86;15.19;100408.94;1681303;85;21560;-65
2021/08/09 06:29:27;;;;;;;11.43;3.30;;;;;;;45.03;15.18;100412.06;1679758;85;21845;-66
2021/08/09 06:32:00;;;;;;;4.90;2.42;;;;;;;45.16;15.14;100406.63;1631775;86;21310;-66
2021/08/09 06:34:33;;;;;;;5.58;2.65;;;;;;;45.33;15.04;100415.09;1644412;87;21196;-69
2021/08/09 06:37:07;;;;;;;5.08;2.45;;;;;;;45.52;14.75;100410.91;1654811;86;21207;-67
2021/08/09 06:39:41;;;;;;;9.45;3.27;;;;;;;45.84;14.32;100412.89;1654704;86;21330;-66
2021/08/09 06:42:15;;;;;;;9.98;2.55;;;;;;;46.14;14.21;100413.85;1641437;87;21192;-66
2021/08/09 06:44:50;;;;;;;5.62;2.45;;;;;;;46.35;13.89;100412.03;1647911;87;21313;-66
2021/08/09 06:51:09;;;;;;;6.17;2.60;;;;;;;46.95;13.44;100413.72;1652763;86;21885;-64
2021/08/09 06:53:43;;;;;;;8.23;3.08;;;;;;;47.37;13.30;100419.80;1656644;86;22161;-67
2021/08/09 07:00:26;;;;;;;8.63;2.87;;;;;;;47.98;13.03;100415.12;1653531;86;21144;-67
2021/08/09 07:03:08;;;;;;;8.50;2.60;;;;;;;48.62;12.55;100408.67;1652278;86;21345;-67
2021/08/09 07:05:46;;;;;;;9.63;3.37;;;;;;;48.88;12.39;100411.81;1653716;86;21314;-65
2021/08/09 07:08:21;;;;;;;10.35;3.08;;;;;;;48.65;12.34;100412.84;1652178;85;21389;-66
2021/08/09 07:10:54;;;;;;;4.67;2.55;;;;;;;48.28;12.64;100414.97;1653287;86;21373;-67
2021/08/09 07:13:28;;;;;;;3.75;2.40;;;;;;;48.11;12.48;100414.21;1653101;86;21333;-67
2021/08/09 07:16:02;;;;;;;4.37;2.30;;;;;;;47.80;12.39;100421.09;1653340;86;21349;-66
2021/08/09 07:18:36;;;;;;;11.70;2.67;;;;;;;47.25;12.61;100420.63;1652682;86;21222;-65
2021/08/09 07:21:12;;;;;;;6.03;2.58;;;;;;;46.49;13.22;100422.73;1653314;86;21203;-66
2021/08/09 07:23:46;;;;;;;8.45;2.65;;;;;;;45.58;14.02;100421.88;1653020;86;21329;-66
2021/08/09 07:26:20;;;;;;;6.45;2.40;;;;;;;45.15;14.46;100423.55;1653328;86;21984;-66
2021/08/09 07:28:54;;;;;;;6.85;2.30;;;;;;;45.37;14.51;100431.96;1655493;86;21326;-65
2021/08/09 07:31:28;;;;;;;5.70;2.20;;;;;;;45.40;14.51;100431.81;1653507;86;21361;-67
2021/08/09 07:34:01;;;;;;;7.53;2.50;;;;;;;45.97;14.34;100435.11;1653046;86;21325;-67
2021/08/09 07:36:34;;;;;;;3.42;2.37;;;;;;;46.68;14.19;100430.13;1653324;86;21190;-66
2021/08/09 07:39:07;;;;;;;5.12;2.70;;;;;;;47.42;13.63;100440.03;1652791;86;21349;-65
2021/08/09 07:41:43;;;;;;;6.62;2.80;;;;;;;48.11;13.02;100437.01;1653375;86;21354;-67
2021/08/09 07:44:17;;;;;;;7.20;2.42;;;;;;;48.71;12.41;100429.16;1652834;86;21207;-68
2021/08/09 07:46:51;;;;;;;21.00;3.60;;;;;;;49.05;11.79;100429.97;1653113;86;21302;-66
2021/08/09 07:49:24;;;;;;;5.10;2.50;;;;;;;49.41;11.66;100435.67;1652624;86;21666;-66
2021/08/09 07:51:57;;;;;;;5.78;2.55;;;;;;;49.70;11.42;100433.99;1657087;86;21591;-66
2021/08/09 07:54:31;;;;;;;5.25;2.45;;;;;;;49.94;10.76;100439.41;1661914;86;21317;-68
2021/08/09 07:57:06;;;;;;;8.00;2.65;;;;;;;50.06;10.68;100439.61;1666549;86;22047;-67
2021/08/09 07:59:42;;;;;;;4.75;2.50;;;;;;;50.16;10.83;100447.17;1665805;86;22150;-66
2021/08/09 08:02:15;;;;;;;6.65;2.90;;;;;;;50.29;10.65;100448.38;1666605;86;22112;-66
2021/08/09 08:04:49;;;;;;;5.35;2.80;;;;;;;50.38;10.54;100457.11;1665154;86;21257;-65
2021/08/09 08:07:23;;;;;;;8.93;2.87;;;;;;;50.41;10.58;100448.77;1666567;86;21170;-68
2021/08/09 08:09:57;;;;;;;7.40;3.00;;;;;;;50.42;10.39;100456.53;1665697;86;21218;-67
2021/08/09 08:12:32;;;;;;;9.00;2.75;;;;;;;50.42;9.81;100455.14;1665166;86;21505;-68
2021/08/09 08:15:07;;;;;;;5.42;3.00;;;;;;;50.41;9.53;100446.56;1667166;86;21416;-65
2021/08/09 08:17:46;;;;;;;4.20;2.73;;;;;;;50.44;10.02;100447.97;1668821;86;21341;-69
2021/08/09 08:20:20;;;;;;;3.80;2.72;;;;;;;50.26;10.44;100454.73;1665664;86;21331;-70
2021/08/09 08:22:55;;;;;;;5.67;2.98;;;;;;;49.96;10.76;100447.36;1666667;86;21313;-67
2021/08/09 08:25:29;;;;;;;7.95;2.90;;;;;;;49.77;11.08;100449.89;1665848;86;22028;-66
2021/08/09 08:28:02;;;;;;;6.15;2.75;;;;;;;49.77;11.02;100454.88;1665679;86;22025;-65
2021/08/09 08:30:35;;;;;;;4.90;2.75;;;;;;;49.84;11.05;100453.49;1665483;86;21329;-70
2021/08/09 08:33:10;;;;;;;5.03;2.80;;;;;;;49.85;11.21;100448.70;1664748;86;21277;-66
2021/08/09 08:35:44;;;;;;;5.30;3.05;;;;;;;49.82;11.00;100455.88;1665603;86;21380;-67
2021/08/09 08:38:18;;;;;;;6.67;3.20;;;;;;;49.65;11.03;100445.51;1666455;86;21373;-70
2021/08/09 08:40:53;;;;;;;10.68;2.72;;;;;;;49.67;11.20;100447.30;1665476;86;21400;-65
2021/08/09 08:43:28;;;;;;;4.75;2.75;;;;;;;49.73;11.25;100448.48;1666607;86;21578;-66
2021/08/09 08:46:07;;;;;;;15.43;3.87;;;;;;;49.59;10.46;100451.84;1665763;86;21229;-66
2021/08/09 08:48:43;;;;;;;7.20;2.37;;;;;;;49.26;10.44;100446.76;1666296;86;21324;-66
2021/08/09 08:51:23;;;;;;;6.37;3.00;;;;;;;48.83;10.50;100444.92;1660726;86;21270;-68
2021/08/09 08:53:58;;;;;;;11.25;2.45;;;;;;;48.39;11.04;100455.33;1659809;86;21345;-64
2021/08/09 08:56:31;;;;;;;8.45;3.05;;;;;;;47.82;11.64;100452.61;1652477;86;21389;-67
2021/08/09 08:59:13;;;;;;;5.97;2.80;;;;;;;47.17;12.00;100450.23;1653403;86;21373;-63
2021/08/09 09:01:52;;;;;;;7.83;2.47;;;;;;;46.48;12.57;100450.81;1652263;86;21195;-65
2021/08/09 09:04:28;;;;;;;6.03;2.20;;;;;;;45.90;12.47;100451.55;1647639;87;21346;-65
2021/08/09 09:07:06;;;;;;;7.62;2.72;;;;;;;45.44;13.07;100454.22;1643113;87;21285;-66
2021/08/09 09:09:41;;;;;;;7.87;2.55;;;;;;;45.09;13.05;100458.99;1643967;87;21223;-63
2021/08/09 09:12:19;;;;;;;8.35;2.40;;;;;;;44.78;12.92;100457.06;1642708;87;21496;-64
2021/08/09 09:15:03;;;;;;;6.40;2.35;;;;;;;44.66;13.38;100464.69;1644160;87;21414;-65
2021/08/09 09:17:40;;;;;;;7.90;2.70;;;;;;;44.54;13.53;100462.03;1644173;87;21216;-63
2021/08/09 09:20:25;;;;;;;8.45;2.33;;;;;;;44.40;13.82;100467.98;1643615;87;21204;-66
2021/08/09 09:23:20;;;;;;;8.73;2.70;;;;;;;44.22;13.99;100468.69;1643989;87;21194;-64
2021/08/09 09:25:53;;;;;;;9.33;2.75;;;;;;;44.08;13.78;100476.03;1643642;87;21248;-65
2021/08/09 09:32:36;;;;;;;4.60;2.42;;;;;;;43.44;14.11;100478.38;1642795;87;21196;-65
2021/08/09 09:35:10;;;;;;;10.23;2.55;;;;;;;43.12;14.31;100479.91;1643881;87;21193;-66
2021/08/09 09:37:43;;;;;;;6.12;2.47;;;;;;;43.03;14.84;100473.73;1645533;87;21208;-65
2021/08/09 09:40:19;;;;;;;8.05;2.70;;;;;;;42.85;15.06;100469.83;1603597;87;21154;-66
2021/08/09 09:42:53;;;;;;;11.97;3.37;;;;;;;42.56;15.18;100470.66;1642921;87;21236;-67
2021/08/09 09:45:32;;;;;;;7.30;2.52;;;;;;;42.30;15.61;100472.91;1644015;87;21380;-66
2021/08/09 09:48:10;;;;;;;7.00;2.80;;;;;;;42.10;16.08;100465.78;1642845;87;21220;-64
2021/08/09 09:50:45;;;;;;;11.93;3.40;;;;;;;41.92;16.05;100471.19;1644463;87;21213;-64
2021/08/09 09:53:21;;;;;;;7.62;3.22;;;;;;;41.68;16.10;100473.05;1643099;87;21204;-65
2021/08/09 09:55:55;;;;;;;6.90;3.10;;;;;;;41.51;16.05;100474.01;1633974;87;21492;-66
2021/08/09 09:58:28;;;;;;;8.35;3.08;;;;;;;41.36;16.09;100470.49;1627219;88;21657;-66
2021/08/09 10:05:13;;;;;;;12.35;3.52;;;;;;;40.84;16.63;100465.88;1627322;88;21405;-63
2021/08/09 10:07:49;;;;;;;12.03;3.60;;;;;;;40.29;17.09;100467.34;1626436;88;21362;-66
2021/08/09 10:10:23;;;;;;;7.05;3.20;;;;;;;40.09;17.41;100474.89;1626189;88;21264;-65
2021/08/09 10:12:56;;;;;;;11.45;3.40;;;;;;;39.91;17.58;100478.19;1626166;88;21358;-66
2021/08/09 10:15:30;;;;;;;18.82;4.28;;;;;;;39.77;17.90;100483.65;1630090;88;21339;-65
2021/08/09 10:18:03;;;;;;;9.18;3.42;;;;;;;39.58;18.47;100477.89;1626635;88;21358;-64
2021/08/09 10:24:48;;;;;;;13.95;3.45;;;;;;;39.58;18.78;100483.93;1627165;88;21511;-65
2021/08/09 10:27:51;;;;;;;13.58;3.30;;;;;;;39.61;18.71;100490.98;1588594;87;21216;-66
2021/08/09 10:30:25;;;;;;;6.15;3.55;;;;;;;39.46;18.64;100487.87;1640943;87;21235;-63
2021/08/09 10:32:58;;;;;;;12.35;3.52;;;;;;;39.34;19.23;100482.27;1619661;87;22131;-64
2021/08/09 10:35:47;;;;;;;14.78;4.20;;;;;;;39.28;19.72;100479.42;1640941;87;21240;-64
2021/08/09 10:38:29;;;;;;;9.90;3.58;;;;;;;39.18;20.11;100480.55;1643723;87;21261;-62
2021/08/09 10:45:52;;;;;;;11.88;3.70;;;;;;;38.93;20.60;100486.17;1601652;89;21992;-66
2021/08/09 10:48:45;;;;;;;;;;;;;;;38.84;21.15;100476.33;1631946;87;21342;-65
2021/08/09 10:51:20;;;;;;;15.93;4.25;;;;;;;38.78;21.32;100471.59;1616523;88;20748;-65
2021/08/09 10:53:53;;;;;;;16.52;4.12;;;;;;;38.58;21.86;100474.86;1646978;86;22215;-65
2021/08/09 10:56:46;;;;;;;13.58;3.83;;;;;;;38.53;22.14;100474.19;1648715;85;21387;-66
2021/08/09 10:59:46;;;;;;;14.40;4.80;;;;;;;38.49;22.65;100471.84;1624145;88;22029;-64
2021/08/09 11:06:37;;;;;;;13.55;4.03;;;;;;;38.47;22.35;100470.80;1626783;87;21519;-68
2021/08/09 11:09:35;;;;;;;16.75;4.47;;;;;;;38.45;22.66;100463.48;1611414;87;21459;-65
2021/08/09 11:12:20;;;;;;;10.82;3.95;;;;;;;38.49;22.55;100469.92;1627387;86;21342;-64
2021/08/09 11:15:13;;;;;;;11.03;4.08;;;;;;;38.55;22.51;100472.75;1665517;85;21205;-66
2021/08/09 11:17:49;;;;;;;6.90;3.72;;;;;;;38.48;22.61;100475.72;1664842;85;21242;-66
2021/08/09 11:20:32;;;;;;;10.35;3.37;;;;;;;38.46;22.72;100468.36;1659584;86;21253;-66
2021/08/09 11:23:10;;;;;;;9.35;3.37;;;;;;;38.46;22.64;100462.89;1660350;86;21214;-67
2021/08/09 11:29:58;;;;;;;8.43;3.75;;;;;;;38.45;22.90;100467.58;1634338;87;21161;-66
2021/08/09 11:32:42;;;;;;;8.93;3.20;;;;;;;38.16;22.01;100479.00;1629179;87;21358;-67
2021/08/09 11:35:16;;;;;;;8.15;3.20;;;;;;;37.87;22.37;100481.38;1633666;87;21428;-67
2021/08/09 11:38:01;;;;;;;11.65;3.50;;;;;;;37.63;22.52;100478.94;1633402;87;22032;-67
2021/08/09 11:40:50;;;;;;;7.03;3.52;;;;;;;37.52;22.80;100489.05;1636034;87;21618;-65
2021/08/09 11:43:27;;;;;;;7.40;3.08;;;;;;;37.45;23.32;100485.36;1628981;87;21284;-68
2021/08/09 11:46:10;;;;;;;8.83;3.47;;;;;;;37.40;23.18;100488.23;1635194;86;21390;-67
2021/08/09 11:48:47;;;;;;;5.83;3.10;;;;;;;37.34;23.37;100482.59;1633889;86;21359;-69
2021/08/09 11:51:31;;;;;;;11.68;3.17;;;;;;;37.34;23.64;100483.95;1667295;85;21280;-67
2021/08/09 11:54:05;;;;;;;7.80;2.80;;;;;;;37.38;23.54;100500.58;1670175;85;22023;-69
2021/08/09 11:56:39;;;;;;;10.45;3.05;;;;;;;37.36;23.80;100488.55;1673420;85;21312;-69
2021/08/09 12:03:26;;;;;;;6.10;3.42;;;;;;;37.44;22.61;100497.97;1649122;85;21220;-67
2021/08/09 12:06:23;;;;;;;7.22;3.05;;;;;;;37.46;23.31;100496.55;1669966;85;21590;-67
2021/08/09 12:08:58;;;;;;;8.88;3.30;;;;;;;37.56;22.99;100504.52;1670148;85;21231;-69
2021/08/09 12:11:33;;;;;;;10.15;3.33;;;;;;;37.54;23.14;100492.27;1664720;86;21383;-67
2021/08/09 12:14:12;;;;;;;9.08;3.60;;;;;;;37.45;23.69;100496.28;1673315;85;21331;-67
2021/08/09 12:16:57;;;;;;;8.10;3.72;;;;;;;37.36;23.93;100497.28;1670432;85;21252;-66
2021/08/09 12:19:44;;;;;;;10.32;3.62;;;;;;;37.34;24.08;100483.95;1670080;85;21490;-68
2021/08/09 12:22:24;;;;;;;10.53;3.55;;;;;;;37.28;24.03;100488.48;1671454;85;21196;-68
2021/08/09 12:25:17;;;;;;;11.90;3.15;;;;;;;37.26;24.28;100487.98;1671020;85;21534;-67
2021/08/09 12:28:03;;;;;;;16.80;3.83;;;;;;;37.19;24.36;100488.96;1669949;85;21294;-68
2021/08/09 12:30:53;;;;;;;7.35;3.08;;;;;;;37.02;25.88;100486.87;1670828;85;21220;-69
2021/08/09 12:33:29;;;;;;;15.95;3.87;;;;;;;36.66;26.67;100509.95;1635067;87;22168;-67
2021/08/09 12:36:02;;;;;;;12.93;3.55;;;;;;;36.27;27.46;100504.09;1614931;88;21284;-69
2021/08/09 12:38:40;;;;;;;;;;;;;;;35.99;28.11;100499.13;1622360;88;21499;-65
2021/08/09 12:41:12;;;;;;;12.03;3.77;;;;;;;35.82;28.54;100492.84;1615790;88;20409;-65
2021/08/09 12:43:46;;;;;;;13.28;3.92;;;;;;;35.70;28.97;100492.48;1612321;88;22159;-64
2021/08/09 12:46:19;;;;;;;9.40;4.15;;;;;;;35.65;29.15;100492.56;1615507;88;21232;-67
2021/08/09 12:48:53;;;;;;;13.13;3.92;;;;;;;35.63;28.90;100487.97;1615844;88;21609;-69
2021/08/09 12:51:26;;;;;;;11.48;4.35;;;;;;;35.62;29.00;100476.80;1612152;88;21236;-67
2021/08/09 12:54:00;;;;;;;11.05;3.83;;;;;;;35.72;29.16;100483.46;1599700;89;21248;-64
2021/08/09 12:56:50;;;;;;;11.73;4.00;;;;;;;35.90;28.83;100489.18;1598600;89;21497;-69
2021/08/09 12:59:23;;;;;;;9.88;4.03;;;;;;;35.98;29.06;100496.14;1597897;89;21304;-70